sensor_id;sensor_type;location;lat;lon;timestamp;temperature;humidity
429;DHT22;201;48.758;9.290;2022-09-20T00:01:27;9.40;20.70
429;DHT22;201;48.758;9.290;2022-09-20T00:03:55;9.40;20.60
429;DHT22;201;48.758;9.290;2022-09-20T00:06:23;9.50;20.50
429;DHT22;201;48.758;9.290;2022-09-20T00:08:49;9.40;20.30
429;DHT22;201;48.758;9.290;2022-09-20T00:11:20;9.40;20.30
429;DHT22;201;48.758;9.290;2022-09-20T00:13:48;9.30;20.20
429;DHT22;201;48.758;9.290;2022-09-20T00:16:16;9.20;20.40
429;DHT22;201;48.758;9.290;2022-09-20T00:18:42;9.20;20.50
429;DHT22;201;48.758;9.290;2022-09-20T00:21:15;9.20;20.60
429;DHT22;201;48.758;9.290;2022-09-20T00:23:41;9.10;20.90
429;DHT22;201;48.758;9.290;2022-09-20T00:26:06;9.10;20.90
429;DHT22;201;48.758;9.290;2022-09-20T00:28:32;9.10;21.10
429;DHT22;201;48.758;9.290;2022-09-20T00:30:59;9.10;21.40
429;DHT22;201;48.758;9.290;2022-09-20T00:33:25;9.10;21.60
429;DHT22;201;48.758;9.290;2022-09-20T00:36:10;9.00;21.60
429;DHT22;201;48.758;9.290;2022-09-20T00:38:36;9.10;21.90
429;DHT22;201;48.758;9.290;2022-09-20T00:41:01;9.10;22.00
429;DHT22;201;48.758;9.290;2022-09-20T00:43:38;9.10;22.10
429;DHT22;201;48.758;9.290;2022-09-20T00:46:05;9.20;22.10
429;DHT22;201;48.758;9.290;2022-09-20T00:48:34;9.10;21.90
429;DHT22;201;48.758;9.290;2022-09-20T00:51:07;9.20;22.00
429;DHT22;201;48.758;9.290;2022-09-20T00:53:38;9.20;22.00
429;DHT22;201;48.758;9.290;2022-09-20T00:56:12;9.10;21.90
429;DHT22;201;48.758;9.290;2022-09-20T00:58:46;9.10;21.90
429;DHT22;201;48.758;9.290;2022-09-20T01:01:13;9.10;21.90
429;DHT22;201;48.758;9.290;2022-09-20T01:03:39;9.10;21.90
429;DHT22;201;48.758;9.290;2022-09-20T01:06:10;9.10;21.70
429;DHT22;201;48.758;9.290;2022-09-20T01:08:37;9.00;21.50
429;DHT22;201;48.758;9.290;2022-09-20T01:11:03;9.10;21.70
429;DHT22;201;48.758;9.290;2022-09-20T01:13:29;9.10;21.60
429;DHT22;201;48.758;9.290;2022-09-20T01:15:56;9.10;21.50
429;DHT22;201;48.758;9.290;2022-09-20T01:18:25;9.10;21.60
429;DHT22;201;48.758;9.290;2022-09-20T01:20:51;9.10;21.50
429;DHT22;201;48.758;9.290;2022-09-20T01:23:41;9.20;21.60
429;DHT22;201;48.758;9.290;2022-09-20T01:26:49;9.30;21.60
429;DHT22;201;48.758;9.290;2022-09-20T01:32:12;9.30;20.90
429;DHT22;201;48.758;9.290;2022-09-20T01:34:49;9.30;20.70
429;DHT22;201;48.758;9.290;2022-09-20T01:37:25;9.30;20.60
429;DHT22;201;48.758;9.290;2022-09-20T01:42:42;9.30;20.40
429;DHT22;201;48.758;9.290;2022-09-20T01:48:14;9.20;20.30
429;DHT22;201;48.758;9.290;2022-09-20T02:00:00;9.10;20.00
429;DHT22;201;48.758;9.290;2022-09-20T02:02:51;9.00;19.80
429;DHT22;201;48.758;9.290;2022-09-20T02:08:21;8.90;19.90
429;DHT22;201;48.758;9.290;2022-09-20T02:14:45;9.00;20.00
429;DHT22;201;48.758;9.290;2022-09-20T02:28:20;8.90;20.30
429;DHT22;201;48.758;9.290;2022-09-20T02:31:13;8.90;20.40
429;DHT22;201;48.758;9.290;2022-09-20T02:39:18;8.90;20.40
429;DHT22;201;48.758;9.290;2022-09-20T02:47:42;8.90;20.50
429;DHT22;201;48.758;9.290;2022-09-20T02:53:02;8.80;20.30
429;DHT22;201;48.758;9.290;2022-09-20T03:00:59;8.90;20.60
429;DHT22;201;48.758;9.290;2022-09-20T03:03:43;8.90;20.70
429;DHT22;201;48.758;9.290;2022-09-20T03:06:18;8.90;20.50
429;DHT22;201;48.758;9.290;2022-09-20T03:11:39;8.80;19.70
429;DHT22;201;48.758;9.290;2022-09-20T03:20:02;8.80;19.10
429;DHT22;201;48.758;9.290;2022-09-20T03:25:21;8.90;18.60
429;DHT22;201;48.758;9.290;2022-09-20T03:31:22;8.90;18.40
429;DHT22;201;48.758;9.290;2022-09-20T03:34:28;8.80;18.00
429;DHT22;201;48.758;9.290;2022-09-20T03:40:10;8.70;17.90
429;DHT22;201;48.758;9.290;2022-09-20T03:42:45;8.70;17.90
429;DHT22;201;48.758;9.290;2022-09-20T03:45:32;8.60;17.90
429;DHT22;201;48.758;9.290;2022-09-20T03:51:27;8.60;17.80
429;DHT22;201;48.758;9.290;2022-09-20T03:54:14;8.50;17.80
429;DHT22;201;48.758;9.290;2022-09-20T04:02:15;8.60;17.90
429;DHT22;201;48.758;9.290;2022-09-20T04:04:56;8.60;17.80
429;DHT22;201;48.758;9.290;2022-09-20T04:10:49;8.60;17.80
429;DHT22;201;48.758;9.290;2022-09-20T04:13:34;8.70;17.90
429;DHT22;201;48.758;9.290;2022-09-20T04:16:02;8.70;17.90
429;DHT22;201;48.758;9.290;2022-09-20T04:18:47;8.70;17.90
429;DHT22;201;48.758;9.290;2022-09-20T04:23:50;8.80;17.30
429;DHT22;201;48.758;9.290;2022-09-20T04:26:24;8.70;17.80
429;DHT22;201;48.758;9.290;2022-09-20T04:29:12;8.70;17.70
429;DHT22;201;48.758;9.290;2022-09-20T04:31:46;8.80;18.00
429;DHT22;201;48.758;9.290;2022-09-20T04:34:38;8.80;18.00
429;DHT22;201;48.758;9.290;2022-09-20T04:37:33;8.80;17.80
429;DHT22;201;48.758;9.290;2022-09-20T04:46:07;8.90;18.10
429;DHT22;201;48.758;9.290;2022-09-20T04:52:13;9.00;18.10
429;DHT22;201;48.758;9.290;2022-09-20T04:58:06;8.90;18.00
429;DHT22;201;48.758;9.290;2022-09-20T05:00:56;8.90;18.10
429;DHT22;201;48.758;9.290;2022-09-20T05:23:15;9.00;18.10
429;DHT22;201;48.758;9.290;2022-09-20T05:31:35;8.90;18.10
429;DHT22;201;48.758;9.290;2022-09-20T05:40:24;8.80;18.00
429;DHT22;201;48.758;9.290;2022-09-20T05:48:33;8.80;18.70
429;DHT22;201;48.758;9.290;2022-09-20T05:51:19;8.80;18.60
429;DHT22;201;48.758;9.290;2022-09-20T05:54:20;8.90;18.90
429;DHT22;201;48.758;9.290;2022-09-20T05:57:13;9.00;18.80
429;DHT22;201;48.758;9.290;2022-09-20T06:00:01;9.00;18.20
429;DHT22;201;48.758;9.290;2022-09-20T06:02:37;9.10;18.50
429;DHT22;201;48.758;9.290;2022-09-20T06:05:19;9.10;18.30
429;DHT22;201;48.758;9.290;2022-09-20T06:13:58;9.20;18.30
429;DHT22;201;48.758;9.290;2022-09-20T06:21:55;9.60;18.60
429;DHT22;201;48.758;9.290;2022-09-20T06:24:24;9.90;17.40
429;DHT22;201;48.758;9.290;2022-09-20T06:26:54;10.20;15.70
429;DHT22;201;48.758;9.290;2022-09-20T06:29:32;10.40;14.10
429;DHT22;201;48.758;9.290;2022-09-20T06:31:59;10.50;13.30
429;DHT22;201;48.758;9.290;2022-09-20T06:34:25;10.60;12.80
429;DHT22;201;48.758;9.290;2022-09-20T06:37:05;10.70;11.60
429;DHT22;201;48.758;9.290;2022-09-20T06:40:02;10.80;11.30
429;DHT22;201;48.758;9.290;2022-09-20T06:42:50;11.00;10.20
429;DHT22;201;48.758;9.290;2022-09-20T06:45:18;11.00;10.20
429;DHT22;201;48.758;9.290;2022-09-20T06:47:43;11.10;10.80
429;DHT22;201;48.758;9.290;2022-09-20T06:50:15;11.40;10.60
429;DHT22;201;48.758;9.290;2022-09-20T06:52:42;12.10;8.80
429;DHT22;201;48.758;9.290;2022-09-20T06:55:15;12.70;5.80
429;DHT22;201;48.758;9.290;2022-09-20T06:57:43;13.60;4.10
429;DHT22;201;48.758;9.290;2022-09-20T07:00:11;14.20;1.70
429;DHT22;201;48.758;9.290;2022-09-20T07:02:37;14.30;1.00
429;DHT22;201;48.758;9.290;2022-09-20T07:05:03;15.10;1.00
429;DHT22;201;48.758;9.290;2022-09-20T07:07:31;16.00;1.00
429;DHT22;201;48.758;9.290;2022-09-20T07:09:57;16.00;1.00
429;DHT22;201;48.758;9.290;2022-09-20T07:12:23;16.10;1.00
429;DHT22;201;48.758;9.290;2022-09-20T07:14:49;17.30;1.00
429;DHT22;201;48.758;9.290;2022-09-20T07:17:15;17.50;1.00
429;DHT22;201;48.758;9.290;2022-09-20T07:19:40;17.30;1.00
429;DHT22;201;48.758;9.290;2022-09-20T07:22:06;16.80;1.00
429;DHT22;201;48.758;9.290;2022-09-20T07:24:31;16.20;1.00
429;DHT22;201;48.758;9.290;2022-09-20T07:27:01;15.60;1.00
429;DHT22;201;48.758;9.290;2022-09-20T07:29:27;15.00;1.00
429;DHT22;201;48.758;9.290;2022-09-20T07:31:54;14.60;1.00
429;DHT22;201;48.758;9.290;2022-09-20T07:34:20;13.90;1.00
429;DHT22;201;48.758;9.290;2022-09-20T07:36:49;13.20;1.00
429;DHT22;201;48.758;9.290;2022-09-20T07:39:16;13.80;1.00
429;DHT22;201;48.758;9.290;2022-09-20T07:41:41;14.10;1.00
429;DHT22;201;48.758;9.290;2022-09-20T07:44:10;14.10;1.00
429;DHT22;201;48.758;9.290;2022-09-20T07:46:47;13.80;1.00
429;DHT22;201;48.758;9.290;2022-09-20T07:49:13;13.50;1.00
429;DHT22;201;48.758;9.290;2022-09-20T07:51:38;14.10;1.00
429;DHT22;201;48.758;9.290;2022-09-20T07:54:04;14.60;1.00
429;DHT22;201;48.758;9.290;2022-09-20T07:56:29;15.40;1.00
429;DHT22;201;48.758;9.290;2022-09-20T07:58:55;15.10;1.00
429;DHT22;201;48.758;9.290;2022-09-20T08:01:20;15.40;1.00
429;DHT22;201;48.758;9.290;2022-09-20T08:03:47;18.10;1.00
429;DHT22;201;48.758;9.290;2022-09-20T08:06:12;20.60;1.00
429;DHT22;201;48.758;9.290;2022-09-20T08:08:42;22.90;1.00
429;DHT22;201;48.758;9.290;2022-09-20T08:11:11;23.40;1.00
429;DHT22;201;48.758;9.290;2022-09-20T08:13:50;24.70;1.00
429;DHT22;201;48.758;9.290;2022-09-20T08:16:16;26.30;1.00
429;DHT22;201;48.758;9.290;2022-09-20T08:18:59;26.80;1.00
429;DHT22;201;48.758;9.290;2022-09-20T08:21:30;27.90;1.00
429;DHT22;201;48.758;9.290;2022-09-20T08:23:56;26.10;1.00
429;DHT22;201;48.758;9.290;2022-09-20T08:26:22;26.50;1.00
429;DHT22;201;48.758;9.290;2022-09-20T08:28:53;27.20;1.00
429;DHT22;201;48.758;9.290;2022-09-20T08:31:23;25.40;1.00
429;DHT22;201;48.758;9.290;2022-09-20T08:33:50;23.20;1.00
429;DHT22;201;48.758;9.290;2022-09-20T08:36:17;21.30;1.00
429;DHT22;201;48.758;9.290;2022-09-20T08:38:43;22.00;1.00
429;DHT22;201;48.758;9.290;2022-09-20T08:41:19;23.00;1.00
429;DHT22;201;48.758;9.290;2022-09-20T08:44:13;23.80;1.00
429;DHT22;201;48.758;9.290;2022-09-20T08:46:44;22.50;1.00
429;DHT22;201;48.758;9.290;2022-09-20T08:49:16;20.50;1.00
429;DHT22;201;48.758;9.290;2022-09-20T08:51:43;18.80;1.00
429;DHT22;201;48.758;9.290;2022-09-20T08:54:14;16.90;1.00
429;DHT22;201;48.758;9.290;2022-09-20T08:56:41;16.30;1.00
429;DHT22;201;48.758;9.290;2022-09-20T08:59:15;16.70;1.00
429;DHT22;201;48.758;9.290;2022-09-20T09:01:42;16.40;1.00
429;DHT22;201;48.758;9.290;2022-09-20T09:04:14;19.30;1.00
429;DHT22;201;48.758;9.290;2022-09-20T09:06:41;21.40;1.00
429;DHT22;201;48.758;9.290;2022-09-20T09:09:16;23.30;1.00
429;DHT22;201;48.758;9.290;2022-09-20T09:11:43;25.90;1.00
429;DHT22;201;48.758;9.290;2022-09-20T09:14:23;27.30;1.00
429;DHT22;201;48.758;9.290;2022-09-20T09:17:09;26.00;1.00
429;DHT22;201;48.758;9.290;2022-09-20T09:19:48;23.60;1.00
429;DHT22;201;48.758;9.290;2022-09-20T09:25:32;17.70;1.00
429;DHT22;201;48.758;9.290;2022-09-20T09:28:12;15.70;1.00
429;DHT22;201;48.758;9.290;2022-09-20T09:30:42;14.70;1.00
429;DHT22;201;48.758;9.290;2022-09-20T09:35:56;14.00;1.00
429;DHT22;201;48.758;9.290;2022-09-20T09:38:26;13.70;1.00
429;DHT22;201;48.758;9.290;2022-09-20T09:40:57;13.60;1.00
429;DHT22;201;48.758;9.290;2022-09-20T09:43:26;13.30;1.00
429;DHT22;201;48.758;9.290;2022-09-20T09:45:54;13.10;1.00
429;DHT22;201;48.758;9.290;2022-09-20T09:48:29;12.90;1.00
429;DHT22;201;48.758;9.290;2022-09-20T09:51:09;12.90;1.00
429;DHT22;201;48.758;9.290;2022-09-20T09:53:35;13.00;1.00
429;DHT22;201;48.758;9.290;2022-09-20T09:56:24;13.20;1.00
429;DHT22;201;48.758;9.290;2022-09-20T10:04:33;14.80;1.00
429;DHT22;201;48.758;9.290;2022-09-20T10:07:11;16.50;1.00
429;DHT22;201;48.758;9.290;2022-09-20T10:12:29;16.00;1.00
429;DHT22;201;48.758;9.290;2022-09-20T10:23:19;15.40;1.00
429;DHT22;201;48.758;9.290;2022-09-20T10:25:58;16.00;1.00
429;DHT22;201;48.758;9.290;2022-09-20T10:31:46;15.90;1.00
429;DHT22;201;48.758;9.290;2022-09-20T10:34:49;16.30;1.00
429;DHT22;201;48.758;9.290;2022-09-20T10:40:43;18.30;1.00
429;DHT22;201;48.758;9.290;2022-09-20T10:43:45;17.90;1.00
429;DHT22;201;48.758;9.290;2022-09-20T10:57:52;14.60;1.00
429;DHT22;201;48.758;9.290;2022-09-20T11:00:49;14.60;1.00
429;DHT22;201;48.758;9.290;2022-09-20T11:03:54;14.80;1.00
429;DHT22;201;48.758;9.290;2022-09-20T11:09:06;15.30;1.00
429;DHT22;201;48.758;9.290;2022-09-20T11:11:48;15.60;1.00
429;DHT22;201;48.758;9.290;2022-09-20T11:14:22;16.10;1.00
429;DHT22;201;48.758;9.290;2022-09-20T11:22:57;17.90;1.00
429;DHT22;201;48.758;9.290;2022-09-20T11:25:35;18.30;1.00
429;DHT22;201;48.758;9.290;2022-09-20T11:28:15;18.60;1.00
429;DHT22;201;48.758;9.290;2022-09-20T11:33:47;17.80;1.00
429;DHT22;201;48.758;9.290;2022-09-20T11:36:26;17.40;1.00
429;DHT22;201;48.758;9.290;2022-09-20T11:38:58;17.00;1.00
429;DHT22;201;48.758;9.290;2022-09-20T11:41:28;16.90;1.00
429;DHT22;201;48.758;9.290;2022-09-20T11:43:59;16.80;1.00
429;DHT22;201;48.758;9.290;2022-09-20T11:46:30;16.60;1.00
429;DHT22;201;48.758;9.290;2022-09-20T11:49:18;16.60;1.00
429;DHT22;201;48.758;9.290;2022-09-20T11:52:13;17.00;1.00
429;DHT22;201;48.758;9.290;2022-09-20T11:55:17;17.60;1.00
429;DHT22;201;48.758;9.290;2022-09-20T11:57:44;18.10;1.00
429;DHT22;201;48.758;9.290;2022-09-20T12:00:11;18.30;1.00
429;DHT22;201;48.758;9.290;2022-09-20T12:02:47;18.20;1.00
429;DHT22;201;48.758;9.290;2022-09-20T12:05:35;18.00;1.00
429;DHT22;201;48.758;9.290;2022-09-20T12:08:06;17.50;1.00
429;DHT22;201;48.758;9.290;2022-09-20T12:10:36;16.60;1.00
429;DHT22;201;48.758;9.290;2022-09-20T12:13:23;16.00;1.00
429;DHT22;201;48.758;9.290;2022-09-20T12:16:04;15.90;1.00
429;DHT22;201;48.758;9.290;2022-09-20T12:18:35;16.60;1.00
429;DHT22;201;48.758;9.290;2022-09-20T12:21:09;17.10;1.00
429;DHT22;201;48.758;9.290;2022-09-20T12:26:11;17.10;1.00
429;DHT22;201;48.758;9.290;2022-09-20T12:28:59;17.50;1.00
429;DHT22;201;48.758;9.290;2022-09-20T12:36:43;17.80;1.00
429;DHT22;201;48.758;9.290;2022-09-20T12:55:35;17.00;1.00
429;DHT22;201;48.758;9.290;2022-09-20T13:03:30;17.10;1.00
429;DHT22;201;48.758;9.290;2022-09-20T13:11:13;16.30;1.00
429;DHT22;201;48.758;9.290;2022-09-20T13:13:48;16.50;1.00
429;DHT22;201;48.758;9.290;2022-09-20T13:16:29;16.60;1.00
429;DHT22;201;48.758;9.290;2022-09-20T13:22:24;16.20;1.00
429;DHT22;201;48.758;9.290;2022-09-20T13:24:55;16.00;1.00
429;DHT22;201;48.758;9.290;2022-09-20T13:29:53;16.10;1.00
429;DHT22;201;48.758;9.290;2022-09-20T13:32:31;16.20;1.00
429;DHT22;201;48.758;9.290;2022-09-20T13:35:20;16.50;1.00
429;DHT22;201;48.758;9.290;2022-09-20T13:38:07;16.70;1.00
429;DHT22;201;48.758;9.290;2022-09-20T13:40:35;16.80;1.00
429;DHT22;201;48.758;9.290;2022-09-20T13:43:05;16.80;1.00
429;DHT22;201;48.758;9.290;2022-09-20T13:45:31;16.30;1.00
429;DHT22;201;48.758;9.290;2022-09-20T13:47:59;16.00;1.00
429;DHT22;201;48.758;9.290;2022-09-20T13:52:57;15.90;1.00
429;DHT22;201;48.758;9.290;2022-09-20T13:55:30;15.80;1.00
429;DHT22;201;48.758;9.290;2022-09-20T13:58:03;15.70;1.00
429;DHT22;201;48.758;9.290;2022-09-20T14:00:30;15.60;1.00
429;DHT22;201;48.758;9.290;2022-09-20T14:02:56;15.20;1.00
429;DHT22;201;48.758;9.290;2022-09-20T14:05:25;14.90;1.00
429;DHT22;201;48.758;9.290;2022-09-20T14:07:51;14.80;1.00
429;DHT22;201;48.758;9.290;2022-09-20T14:10:33;14.80;1.00
429;DHT22;201;48.758;9.290;2022-09-20T14:13:04;14.50;1.00
429;DHT22;201;48.758;9.290;2022-09-20T14:15:41;14.60;1.00
429;DHT22;201;48.758;9.290;2022-09-20T14:18:12;14.30;1.00
429;DHT22;201;48.758;9.290;2022-09-20T14:20:41;14.20;1.00
429;DHT22;201;48.758;9.290;2022-09-20T14:23:23;14.00;1.00
429;DHT22;201;48.758;9.290;2022-09-20T14:26:24;13.90;1.00
429;DHT22;201;48.758;9.290;2022-09-20T14:28:50;13.70;1.00
429;DHT22;201;48.758;9.290;2022-09-20T14:31:28;13.50;1.00
429;DHT22;201;48.758;9.290;2022-09-20T14:33:57;13.30;1.00
429;DHT22;201;48.758;9.290;2022-09-20T14:36:26;13.20;1.00
429;DHT22;201;48.758;9.290;2022-09-20T14:38:55;13.10;1.00
429;DHT22;201;48.758;9.290;2022-09-20T14:41:26;12.90;1.00
429;DHT22;201;48.758;9.290;2022-09-20T14:43:59;12.80;1.00
429;DHT22;201;48.758;9.290;2022-09-20T14:46:30;12.60;1.00
429;DHT22;201;48.758;9.290;2022-09-20T14:51:51;12.70;1.00
429;DHT22;201;48.758;9.290;2022-09-20T14:54:27;12.70;1.00
429;DHT22;201;48.758;9.290;2022-09-20T14:56:56;12.70;1.00
429;DHT22;201;48.758;9.290;2022-09-20T14:59:35;12.80;1.00
429;DHT22;201;48.758;9.290;2022-09-20T15:02:12;12.80;1.00
429;DHT22;201;48.758;9.290;2022-09-20T15:04:39;12.70;1.00
429;DHT22;201;48.758;9.290;2022-09-20T15:07:08;12.60;1.00
429;DHT22;201;48.758;9.290;2022-09-20T15:09:38;12.70;1.00
429;DHT22;201;48.758;9.290;2022-09-20T15:12:14;12.90;1.00
429;DHT22;201;48.758;9.290;2022-09-20T15:14:40;13.00;1.00
429;DHT22;201;48.758;9.290;2022-09-20T15:17:10;12.90;1.00
429;DHT22;201;48.758;9.290;2022-09-20T15:19:37;13.00;1.00
429;DHT22;201;48.758;9.290;2022-09-20T15:22:03;13.10;1.00
429;DHT22;201;48.758;9.290;2022-09-20T15:24:28;13.10;1.00
429;DHT22;201;48.758;9.290;2022-09-20T15:26:54;13.20;1.00
429;DHT22;201;48.758;9.290;2022-09-20T15:29:20;13.20;1.00
429;DHT22;201;48.758;9.290;2022-09-20T15:31:48;13.30;1.00
429;DHT22;201;48.758;9.290;2022-09-20T15:34:14;13.40;1.00
429;DHT22;201;48.758;9.290;2022-09-20T15:36:41;13.50;1.00
429;DHT22;201;48.758;9.290;2022-09-20T15:39:07;13.70;1.00
429;DHT22;201;48.758;9.290;2022-09-20T15:41:33;13.70;1.00
429;DHT22;201;48.758;9.290;2022-09-20T15:44:00;14.00;1.00
429;DHT22;201;48.758;9.290;2022-09-20T15:46:26;14.10;1.00
429;DHT22;201;48.758;9.290;2022-09-20T15:48:55;14.20;1.00
429;DHT22;201;48.758;9.290;2022-09-20T15:51:21;14.20;1.00
429;DHT22;201;48.758;9.290;2022-09-20T15:53:57;14.20;1.00
429;DHT22;201;48.758;9.290;2022-09-20T15:56:25;14.10;1.00
429;DHT22;201;48.758;9.290;2022-09-20T15:58:53;14.00;1.00
429;DHT22;201;48.758;9.290;2022-09-20T16:01:24;13.90;1.00
429;DHT22;201;48.758;9.290;2022-09-20T16:03:50;13.80;1.00
429;DHT22;201;48.758;9.290;2022-09-20T16:06:16;13.80;1.00
429;DHT22;201;48.758;9.290;2022-09-20T16:08:42;13.80;1.00
429;DHT22;201;48.758;9.290;2022-09-20T16:11:09;13.70;1.00
429;DHT22;201;48.758;9.290;2022-09-20T16:13:36;13.60;1.00
429;DHT22;201;48.758;9.290;2022-09-20T16:16:04;13.50;1.00
429;DHT22;201;48.758;9.290;2022-09-20T16:18:30;13.40;1.00
429;DHT22;201;48.758;9.290;2022-09-20T16:21:16;13.30;1.00
429;DHT22;201;48.758;9.290;2022-09-20T16:23:50;13.30;1.00
429;DHT22;201;48.758;9.290;2022-09-20T16:26:16;13.10;1.00
429;DHT22;201;48.758;9.290;2022-09-20T16:28:42;13.00;1.00
429;DHT22;201;48.758;9.290;2022-09-20T16:31:31;12.90;1.00
429;DHT22;201;48.758;9.290;2022-09-20T16:33:58;12.70;1.00
429;DHT22;201;48.758;9.290;2022-09-20T16:36:24;12.70;1.00
429;DHT22;201;48.758;9.290;2022-09-20T16:38:51;12.50;1.00
429;DHT22;201;48.758;9.290;2022-09-20T16:41:17;12.50;1.00
429;DHT22;201;48.758;9.290;2022-09-20T16:43:43;12.40;1.00
429;DHT22;201;48.758;9.290;2022-09-20T16:46:09;12.40;1.00
429;DHT22;201;48.758;9.290;2022-09-20T16:48:35;12.30;1.00
429;DHT22;201;48.758;9.290;2022-09-20T16:51:00;12.10;1.00
429;DHT22;201;48.758;9.290;2022-09-20T16:53:26;12.00;1.00
429;DHT22;201;48.758;9.290;2022-09-20T16:55:53;11.90;1.00
429;DHT22;201;48.758;9.290;2022-09-20T16:58:26;11.70;1.00
429;DHT22;201;48.758;9.290;2022-09-20T17:00:52;11.60;1.00
429;DHT22;201;48.758;9.290;2022-09-20T17:03:18;11.60;1.00
429;DHT22;201;48.758;9.290;2022-09-20T17:05:44;11.50;1.00
429;DHT22;201;48.758;9.290;2022-09-20T17:08:10;11.50;1.00
429;DHT22;201;48.758;9.290;2022-09-20T17:10:35;11.50;1.00
429;DHT22;201;48.758;9.290;2022-09-20T17:13:01;11.40;1.00
429;DHT22;201;48.758;9.290;2022-09-20T17:15:27;11.30;1.00
429;DHT22;201;48.758;9.290;2022-09-20T17:17:52;11.20;1.00
429;DHT22;201;48.758;9.290;2022-09-20T17:20:18;11.10;1.00
429;DHT22;201;48.758;9.290;2022-09-20T17:22:44;11.10;1.00
429;DHT22;201;48.758;9.290;2022-09-20T17:25:09;11.00;1.00
429;DHT22;201;48.758;9.290;2022-09-20T17:27:35;11.00;1.00
429;DHT22;201;48.758;9.290;2022-09-20T17:30:05;11.00;1.00
429;DHT22;201;48.758;9.290;2022-09-20T17:32:34;11.00;1.00
429;DHT22;201;48.758;9.290;2022-09-20T17:35:01;10.90;1.00
429;DHT22;201;48.758;9.290;2022-09-20T17:37:27;10.90;1.00
429;DHT22;201;48.758;9.290;2022-09-20T17:39:52;10.80;1.00
429;DHT22;201;48.758;9.290;2022-09-20T17:42:18;10.80;1.00
429;DHT22;201;48.758;9.290;2022-09-20T17:44:44;10.70;1.00
429;DHT22;201;48.758;9.290;2022-09-20T17:47:09;10.70;1.00
429;DHT22;201;48.758;9.290;2022-09-20T17:49:35;10.60;1.00
429;DHT22;201;48.758;9.290;2022-09-20T17:52:02;10.60;1.00
429;DHT22;201;48.758;9.290;2022-09-20T17:54:32;10.50;1.00
429;DHT22;201;48.758;9.290;2022-09-20T17:56:58;10.50;1.00
429;DHT22;201;48.758;9.290;2022-09-20T17:59:24;10.40;1.00
429;DHT22;201;48.758;9.290;2022-09-20T18:01:50;10.30;1.00
429;DHT22;201;48.758;9.290;2022-09-20T18:04:16;10.30;1.00
429;DHT22;201;48.758;9.290;2022-09-20T18:06:52;10.20;1.00
429;DHT22;201;48.758;9.290;2022-09-20T18:09:20;10.20;1.00
429;DHT22;201;48.758;9.290;2022-09-20T18:11:48;10.10;1.00
429;DHT22;201;48.758;9.290;2022-09-20T18:14:17;10.10;1.00
429;DHT22;201;48.758;9.290;2022-09-20T18:16:44;10.10;1.00
429;DHT22;201;48.758;9.290;2022-09-20T18:19:13;10.20;1.00
429;DHT22;201;48.758;9.290;2022-09-20T18:21:40;10.20;1.00
429;DHT22;201;48.758;9.290;2022-09-20T18:24:07;10.10;1.00
429;DHT22;201;48.758;9.290;2022-09-20T18:26:34;10.10;1.00
429;DHT22;201;48.758;9.290;2022-09-20T18:29:08;10.10;1.10
429;DHT22;201;48.758;9.290;2022-09-20T18:31:37;10.00;1.40
429;DHT22;201;48.758;9.290;2022-09-20T18:34:05;10.00;1.70
429;DHT22;201;48.758;9.290;2022-09-20T18:36:33;9.90;3.20
429;DHT22;201;48.758;9.290;2022-09-20T18:38:59;9.90;3.20
429;DHT22;201;48.758;9.290;2022-09-20T18:41:29;9.80;3.30
429;DHT22;201;48.758;9.290;2022-09-20T18:43:56;9.70;3.40
429;DHT22;201;48.758;9.290;2022-09-20T18:46:23;9.70;3.80
429;DHT22;201;48.758;9.290;2022-09-20T18:48:51;9.60;4.10
429;DHT22;201;48.758;9.290;2022-09-20T18:51:17;9.50;4.80
429;DHT22;201;48.758;9.290;2022-09-20T18:53:46;9.50;4.50
429;DHT22;201;48.758;9.290;2022-09-20T18:56:25;9.40;4.60
429;DHT22;201;48.758;9.290;2022-09-20T18:58:54;9.30;4.80
429;DHT22;201;48.758;9.290;2022-09-20T19:07:35;9.20;5.40
429;DHT22;201;48.758;9.290;2022-09-20T19:10:21;9.20;5.90
429;DHT22;201;48.758;9.290;2022-09-20T19:13:03;9.20;6.20
429;DHT22;201;48.758;9.290;2022-09-20T19:15:52;9.10;6.40
429;DHT22;201;48.758;9.290;2022-09-20T19:21:19;9.00;6.60
429;DHT22;201;48.758;9.290;2022-09-20T19:24:08;9.00;6.60
429;DHT22;201;48.758;9.290;2022-09-20T19:26:36;9.00;6.30
429;DHT22;201;48.758;9.290;2022-09-20T19:29:08;9.00;6.00
429;DHT22;201;48.758;9.290;2022-09-20T19:31:37;9.00;6.30
429;DHT22;201;48.758;9.290;2022-09-20T19:34:10;9.00;6.00
429;DHT22;201;48.758;9.290;2022-09-20T19:44:45;9.00;5.80
429;DHT22;201;48.758;9.290;2022-09-20T19:50:22;9.00;6.50
429;DHT22;201;48.758;9.290;2022-09-20T19:52:53;9.00;6.60
429;DHT22;201;48.758;9.290;2022-09-20T19:55:20;9.00;7.00
429;DHT22;201;48.758;9.290;2022-09-20T19:57:46;8.90;7.20
429;DHT22;201;48.758;9.290;2022-09-20T20:00:14;8.90;7.40
429;DHT22;201;48.758;9.290;2022-09-20T20:02:41;8.80;7.40
429;DHT22;201;48.758;9.290;2022-09-20T20:05:27;8.70;7.70
429;DHT22;201;48.758;9.290;2022-09-20T20:08:16;8.60;8.00
429;DHT22;201;48.758;9.290;2022-09-20T20:11:08;8.50;8.20
429;DHT22;201;48.758;9.290;2022-09-20T20:14:39;8.50;8.60
429;DHT22;201;48.758;9.290;2022-09-20T20:19:45;8.40;9.20
429;DHT22;201;48.758;9.290;2022-09-20T20:24:49;8.30;9.20
429;DHT22;201;48.758;9.290;2022-09-20T20:27:19;8.30;9.10
429;DHT22;201;48.758;9.290;2022-09-20T20:29:45;8.30;9.10
429;DHT22;201;48.758;9.290;2022-09-20T20:32:10;8.40;8.90
429;DHT22;201;48.758;9.290;2022-09-20T20:34:36;8.40;8.40
429;DHT22;201;48.758;9.290;2022-09-20T20:37:03;8.40;8.30
429;DHT22;201;48.758;9.290;2022-09-20T20:39:29;8.50;8.10
429;DHT22;201;48.758;9.290;2022-09-20T20:41:56;8.50;7.80
429;DHT22;201;48.758;9.290;2022-09-20T20:44:28;8.60;7.60
429;DHT22;201;48.758;9.290;2022-09-20T20:46:54;8.70;7.40
429;DHT22;201;48.758;9.290;2022-09-20T20:49:20;8.80;7.80
429;DHT22;201;48.758;9.290;2022-09-20T20:51:46;8.90;7.80
429;DHT22;201;48.758;9.290;2022-09-20T20:54:12;8.90;7.90
429;DHT22;201;48.758;9.290;2022-09-20T20:56:37;9.00;7.90
429;DHT22;201;48.758;9.290;2022-09-20T20:59:03;9.00;8.00
429;DHT22;201;48.758;9.290;2022-09-20T21:01:31;9.00;8.00
429;DHT22;201;48.758;9.290;2022-09-20T21:03:57;8.90;7.90
429;DHT22;201;48.758;9.290;2022-09-20T21:06:28;8.90;8.30
429;DHT22;201;48.758;9.290;2022-09-20T21:08:54;8.80;8.60
429;DHT22;201;48.758;9.290;2022-09-20T21:11:27;8.80;8.80
429;DHT22;201;48.758;9.290;2022-09-20T21:13:55;8.70;9.00
429;DHT22;201;48.758;9.290;2022-09-20T21:16:23;8.70;9.20
429;DHT22;201;48.758;9.290;2022-09-20T21:18:50;8.60;9.30
429;DHT22;201;48.758;9.290;2022-09-20T21:21:22;8.50;9.30
429;DHT22;201;48.758;9.290;2022-09-20T21:23:50;8.50;9.30
429;DHT22;201;48.758;9.290;2022-09-20T21:26:16;8.40;9.20
429;DHT22;201;48.758;9.290;2022-09-20T21:28:49;8.40;9.80
429;DHT22;201;48.758;9.290;2022-09-20T21:31:16;8.30;9.10
429;DHT22;201;48.758;9.290;2022-09-20T21:33:42;8.30;9.70
429;DHT22;201;48.758;9.290;2022-09-20T21:36:12;8.20;9.80
429;DHT22;201;48.758;9.290;2022-09-20T21:38:42;8.20;10.10
429;DHT22;201;48.758;9.290;2022-09-20T21:41:13;8.20;10.40
429;DHT22;201;48.758;9.290;2022-09-20T21:43:41;8.20;10.80
429;DHT22;201;48.758;9.290;2022-09-20T21:46:13;8.10;10.80
429;DHT22;201;48.758;9.290;2022-09-20T21:48:40;8.10;10.90
429;DHT22;201;48.758;9.290;2022-09-20T21:51:06;8.00;11.00
429;DHT22;201;48.758;9.290;2022-09-20T21:53:33;8.00;11.20
429;DHT22;201;48.758;9.290;2022-09-20T21:56:02;8.00;11.20
429;DHT22;201;48.758;9.290;2022-09-20T21:58:28;8.00;11.30
429;DHT22;201;48.758;9.290;2022-09-20T22:01:03;8.10;11.20